Main page
METAR-TAF:

METAR-TAF

Airports :

Ängelholm–Helsingborg Airport

Helsingborg, Sweden

latitude: 56-17-46N, longitude: 012-50-50E, elevation: 21 m

Current weather observation

The report was made 39 minutes ago, at 02:20 UTC
Wind 6 kt from the West/Northwest
Temperature 14°C
Humidity 100%
Pressure 1018 hPa
Visibility 10 km or more

METAR: ESTA 240220Z AUTO 30006KT 9999 OVC013/// 14/14 Q1018

Time: 04:59 (02:59 UTC)

Forecast

The report was made 9 hours and 56 minutes ago, at 17:03 UTC
Forecast valid from 23 at 18 UTC to 23 at 22 UTC
Wind 8 kt from the West/Northwest
Visibility 10 km or more
Few clouds at a height of 3000 ft

TAF: ESTA 231703Z 2318/2322 30008KT 9999 FEW030

Weather observations and forecasts of more than 4000 airports (METAR and TAF reports).

The available stations are represented by yellow and red dots on the map.

Hover mouse over dot to see the name of the station.

Then click to see weather observations and forecasts.

To change the map : click on the green buttons with a black cross to zoom in, on the green button with a dash to zoom out, or on the green arrows for adjacent maps.


METAR-TAF: